KFAF/FAF METAR and TAF weather

Enter ICAO airport designator
Station Type Date Time Source
KFAF METAR 2019/07/17 12:56 UTC NOAA

KFAF 171256Z 23004KT 10SM FEW200 29/24 A3002 RMK AO2A SLP169 T02860239 $


Station Type Date Time Source
KFAF Decoded METAR 2019/07/17 12:56 UTC NOAA

Fort Eustis / Felker, VA, United States (KFAF) 37-08N 076-37W
Jul 17, 2019 - 08:56 AM EDT / 2019.07.17 1256 UTC
Wind: from the SW (230 degrees) at 5 MPH (4 KT):0
Visibility: 10 mile(s):0
Sky conditions: mostly clear
Temperature: 83.5 F (28.6 C)
Dew Point: 75.0 F (23.9 C)
Relative Humidity: 75%
Pressure (altimeter): 30.02 in. Hg (1016 hPa)
ob: KFAF 171256Z 23004KT 10SM FEW200 29/24 A3002 RMK AO2A SLP169 T02860239
cycle: 13

Station Type Date Time Source
KFAF TAF 2019/07/17 10:13 UTC NOAA

TAF KFAF 171000Z 1710/1816 20009KT 9999 SCT050 SCT200 QNH2998INS
BECMG 1715/1716 22010G16KT 9999 SCT050 BKN200 QNH2985INS
TEMPO 1719/1723 VRB15G25KT 8000 -TSRA BKN040CB
BECMG 1811/1812 22009KT 8000 -SHRA BKN035 QNH2987INS TX36/1719Z TN26/1710Z

Example: see airport list